sensor_id;sensor_type;location;lat;lon;timestamp;temperature;humidity
75091;DHT22;63674;48.048;8.306;2023-02-28T00:01:35;-3.20;99.90
75091;DHT22;63674;48.048;8.306;2023-02-28T00:04:04;-3.20;99.90
75091;DHT22;63674;48.048;8.306;2023-02-28T00:06:33;-3.20;99.90
75091;DHT22;63674;48.048;8.306;2023-02-28T00:09:02;-3.20;99.90
75091;DHT22;63674;48.048;8.306;2023-02-28T00:11:30;-3.30;99.90
75091;DHT22;63674;48.048;8.306;2023-02-28T00:13:59;-3.30;99.90
75091;DHT22;63674;48.048;8.306;2023-02-28T00:16:27;-3.30;99.90
75091;DHT22;63674;48.048;8.306;2023-02-28T00:18:57;-3.30;99.90
75091;DHT22;63674;48.048;8.306;2023-02-28T00:23:55;-3.30;99.90
75091;DHT22;63674;48.048;8.306;2023-02-28T00:28:53;-3.30;99.90
75091;DHT22;63674;48.048;8.306;2023-02-28T00:31:21;-3.30;99.90
75091;DHT22;63674;48.048;8.306;2023-02-28T00:33:50;-3.30;99.90
75091;DHT22;63674;48.048;8.306;2023-02-28T00:36:20;-3.20;99.90
75091;DHT22;63674;48.048;8.306;2023-02-28T00:38:48;-3.20;99.90
75091;DHT22;63674;48.048;8.306;2023-02-28T00:41:17;-3.30;99.90
75091;DHT22;63674;48.048;8.306;2023-02-28T00:46:15;-3.40;99.90
75091;DHT22;63674;48.048;8.306;2023-02-28T00:48:44;-3.30;99.90
75091;DHT22;63674;48.048;8.306;2023-02-28T00:51:12;-3.40;99.90
75091;DHT22;63674;48.048;8.306;2023-02-28T00:53:42;-3.40;99.90
75091;DHT22;63674;48.048;8.306;2023-02-28T00:56:11;-3.30;99.90
75091;DHT22;63674;48.048;8.306;2023-02-28T00:58:40;-3.20;99.90
75091;DHT22;63674;48.048;8.306;2023-02-28T01:01:09;-3.20;99.90
75091;DHT22;63674;48.048;8.306;2023-02-28T01:03:38;-3.20;99.90
75091;DHT22;63674;48.048;8.306;2023-02-28T01:06:06;-3.20;99.90
75091;DHT22;63674;48.048;8.306;2023-02-28T01:08:35;-3.20;99.90
75091;DHT22;63674;48.048;8.306;2023-02-28T01:11:09;-3.20;99.90
75091;DHT22;63674;48.048;8.306;2023-02-28T01:13:39;-3.20;99.90
75091;DHT22;63674;48.048;8.306;2023-02-28T01:16:08;-3.20;99.90
75091;DHT22;63674;48.048;8.306;2023-02-28T01:18:37;-3.20;99.90
75091;DHT22;63674;48.048;8.306;2023-02-28T01:21:06;-3.20;99.90
75091;DHT22;63674;48.048;8.306;2023-02-28T01:23:36;-3.30;99.90
75091;DHT22;63674;48.048;8.306;2023-02-28T01:26:06;-3.20;99.90
75091;DHT22;63674;48.048;8.306;2023-02-28T01:28:36;-3.20;99.90
75091;DHT22;63674;48.048;8.306;2023-02-28T01:31:05;-3.20;99.90
75091;DHT22;63674;48.048;8.306;2023-02-28T01:33:34;-3.10;99.90
75091;DHT22;63674;48.048;8.306;2023-02-28T01:36:05;-3.10;99.90
75091;DHT22;63674;48.048;8.306;2023-02-28T01:38:35;-3.10;99.90
75091;DHT22;63674;48.048;8.306;2023-02-28T01:41:05;-3.10;99.90
75091;DHT22;63674;48.048;8.306;2023-02-28T01:43:54;-3.10;99.90
75091;DHT22;63674;48.048;8.306;2023-02-28T01:46:25;-3.10;99.90
75091;DHT22;63674;48.048;8.306;2023-02-28T01:48:58;-3.20;99.90
75091;DHT22;63674;48.048;8.306;2023-02-28T01:51:34;-3.20;99.90
75091;DHT22;63674;48.048;8.306;2023-02-28T01:54:09;-3.20;99.90
75091;DHT22;63674;48.048;8.306;2023-02-28T01:56:43;-3.20;99.90
75091;DHT22;63674;48.048;8.306;2023-02-28T01:59:23;-3.20;99.90
75091;DHT22;63674;48.048;8.306;2023-02-28T02:01:54;-3.20;99.90
75091;DHT22;63674;48.048;8.306;2023-02-28T02:04:27;-3.20;99.90
75091;DHT22;63674;48.048;8.306;2023-02-28T02:07:01;-3.20;99.90
75091;DHT22;63674;48.048;8.306;2023-02-28T02:09:30;-3.20;99.90
75091;DHT22;63674;48.048;8.306;2023-02-28T02:11:59;-3.20;99.90
75091;DHT22;63674;48.048;8.306;2023-02-28T02:14:58;-3.20;99.90
75091;DHT22;63674;48.048;8.306;2023-02-28T02:17:35;-3.30;99.90
75091;DHT22;63674;48.048;8.306;2023-02-28T02:20:38;-3.30;99.90
75091;DHT22;63674;48.048;8.306;2023-02-28T02:23:58;-3.30;99.90
75091;DHT22;63674;48.048;8.306;2023-02-28T02:27:06;-3.30;99.90
75091;DHT22;63674;48.048;8.306;2023-02-28T02:36:07;-3.40;99.90
75091;DHT22;63674;48.048;8.306;2023-02-28T02:38:46;-3.40;99.90
75091;DHT22;63674;48.048;8.306;2023-02-28T02:41:22;-3.30;99.90
75091;DHT22;63674;48.048;8.306;2023-02-28T02:43:57;-3.30;99.90
75091;DHT22;63674;48.048;8.306;2023-02-28T02:46:32;-3.30;99.90
75091;DHT22;63674;48.048;8.306;2023-02-28T02:49:05;-3.30;99.90
75091;DHT22;63674;48.048;8.306;2023-02-28T02:51:38;-3.40;99.90
75091;DHT22;63674;48.048;8.306;2023-02-28T02:54:11;-3.30;99.90
75091;DHT22;63674;48.048;8.306;2023-02-28T02:56:44;-3.30;99.90
75091;DHT22;63674;48.048;8.306;2023-02-28T02:59:18;-3.30;99.90
75091;DHT22;63674;48.048;8.306;2023-02-28T03:01:50;-3.40;99.90
75091;DHT22;63674;48.048;8.306;2023-02-28T03:04:22;-3.40;99.90
75091;DHT22;63674;48.048;8.306;2023-02-28T03:06:53;-3.40;99.90
75091;DHT22;63674;48.048;8.306;2023-02-28T03:09:23;-3.50;99.90
75091;DHT22;63674;48.048;8.306;2023-02-28T03:11:54;-3.50;99.90
75091;DHT22;63674;48.048;8.306;2023-02-28T03:14:36;-3.50;99.90
75091;DHT22;63674;48.048;8.306;2023-02-28T03:17:36;-3.50;99.90
75091;DHT22;63674;48.048;8.306;2023-02-28T03:20:31;-3.40;99.90
75091;DHT22;63674;48.048;8.306;2023-02-28T03:23:12;-3.50;99.90
75091;DHT22;63674;48.048;8.306;2023-02-28T03:25:53;-3.50;99.90
75091;DHT22;63674;48.048;8.306;2023-02-28T03:28:31;-3.50;99.90
75091;DHT22;63674;48.048;8.306;2023-02-28T03:31:09;-3.50;99.90
75091;DHT22;63674;48.048;8.306;2023-02-28T03:33:43;-3.50;99.90
75091;DHT22;63674;48.048;8.306;2023-02-28T03:36:24;-3.50;99.90
75091;DHT22;63674;48.048;8.306;2023-02-28T03:38:58;-3.50;99.90
75091;DHT22;63674;48.048;8.306;2023-02-28T03:41:35;-3.60;99.90
75091;DHT22;63674;48.048;8.306;2023-02-28T03:44:08;-3.50;99.90
75091;DHT22;63674;48.048;8.306;2023-02-28T03:46:45;-3.50;99.90
75091;DHT22;63674;48.048;8.306;2023-02-28T03:49:21;-3.50;99.90
75091;DHT22;63674;48.048;8.306;2023-02-28T03:51:51;-3.60;99.90
75091;DHT22;63674;48.048;8.306;2023-02-28T03:54:25;-3.60;99.90
75091;DHT22;63674;48.048;8.306;2023-02-28T03:56:59;-3.60;99.90
75091;DHT22;63674;48.048;8.306;2023-02-28T03:59:35;-3.60;99.90
75091;DHT22;63674;48.048;8.306;2023-02-28T04:02:05;-3.60;99.90
75091;DHT22;63674;48.048;8.306;2023-02-28T04:04:34;-3.60;99.90
75091;DHT22;63674;48.048;8.306;2023-02-28T04:07:04;-3.60;99.90
75091;DHT22;63674;48.048;8.306;2023-02-28T04:09:35;-3.60;99.90
75091;DHT22;63674;48.048;8.306;2023-02-28T04:12:04;-3.60;99.90
75091;DHT22;63674;48.048;8.306;2023-02-28T04:14:33;-3.80;99.90
75091;DHT22;63674;48.048;8.306;2023-02-28T04:17:01;-3.80;99.90
75091;DHT22;63674;48.048;8.306;2023-02-28T04:19:30;-4.00;99.90
75091;DHT22;63674;48.048;8.306;2023-02-28T04:24:28;-3.90;99.90
75091;DHT22;63674;48.048;8.306;2023-02-28T04:26:58;-3.80;99.90
75091;DHT22;63674;48.048;8.306;2023-02-28T04:29:28;-3.80;99.90
75091;DHT22;63674;48.048;8.306;2023-02-28T04:31:58;-3.80;99.90
75091;DHT22;63674;48.048;8.306;2023-02-28T04:34:29;-3.80;99.90
75091;DHT22;63674;48.048;8.306;2023-02-28T04:36:59;-3.80;99.90
75091;DHT22;63674;48.048;8.306;2023-02-28T04:39:40;-3.90;99.90
75091;DHT22;63674;48.048;8.306;2023-02-28T04:42:10;-3.90;99.90
75091;DHT22;63674;48.048;8.306;2023-02-28T04:44:40;-3.90;99.90
75091;DHT22;63674;48.048;8.306;2023-02-28T04:47:08;-3.90;99.90
75091;DHT22;63674;48.048;8.306;2023-02-28T04:49:37;-3.90;99.90
75091;DHT22;63674;48.048;8.306;2023-02-28T04:52:05;-4.00;99.90
75091;DHT22;63674;48.048;8.306;2023-02-28T04:54:34;-3.90;99.90
75091;DHT22;63674;48.048;8.306;2023-02-28T04:57:05;-4.00;99.90
75091;DHT22;63674;48.048;8.306;2023-02-28T04:59:37;-3.90;99.90
75091;DHT22;63674;48.048;8.306;2023-02-28T05:02:06;-3.90;99.90
75091;DHT22;63674;48.048;8.306;2023-02-28T05:04:35;-3.90;99.90
75091;DHT22;63674;48.048;8.306;2023-02-28T05:12:02;-4.00;99.90
75091;DHT22;63674;48.048;8.306;2023-02-28T05:14:30;-4.00;99.90
75091;DHT22;63674;48.048;8.306;2023-02-28T05:17:00;-4.00;99.90
75091;DHT22;63674;48.048;8.306;2023-02-28T05:19:29;-4.00;99.90
75091;DHT22;63674;48.048;8.306;2023-02-28T05:21:57;-4.00;99.90
75091;DHT22;63674;48.048;8.306;2023-02-28T05:24:26;-4.00;99.90
75091;DHT22;63674;48.048;8.306;2023-02-28T05:26:55;-4.10;99.90
75091;DHT22;63674;48.048;8.306;2023-02-28T05:31:52;-4.10;99.90
75091;DHT22;63674;48.048;8.306;2023-02-28T05:34:23;-4.10;99.90
75091;DHT22;63674;48.048;8.306;2023-02-28T05:36:51;-4.00;99.90
75091;DHT22;63674;48.048;8.306;2023-02-28T05:39:20;-4.00;99.90
75091;DHT22;63674;48.048;8.306;2023-02-28T05:41:49;-4.10;99.90
75091;DHT22;63674;48.048;8.306;2023-02-28T05:44:18;-4.10;99.90
75091;DHT22;63674;48.048;8.306;2023-02-28T05:46:46;-4.10;99.90
75091;DHT22;63674;48.048;8.306;2023-02-28T05:49:15;-4.10;99.90
75091;DHT22;63674;48.048;8.306;2023-02-28T05:51:45;-4.00;99.90
75091;DHT22;63674;48.048;8.306;2023-02-28T05:54:13;-4.00;99.90
75091;DHT22;63674;48.048;8.306;2023-02-28T05:56:45;-4.10;99.90
75091;DHT22;63674;48.048;8.306;2023-02-28T06:01:43;-4.10;99.90
75091;DHT22;63674;48.048;8.306;2023-02-28T06:04:16;-4.00;99.90
75091;DHT22;63674;48.048;8.306;2023-02-28T06:06:59;-4.00;99.90
75091;DHT22;63674;48.048;8.306;2023-02-28T06:09:28;-4.00;99.90
75091;DHT22;63674;48.048;8.306;2023-02-28T06:11:58;-4.00;99.90
75091;DHT22;63674;48.048;8.306;2023-02-28T06:14:26;-4.00;99.90
75091;DHT22;63674;48.048;8.306;2023-02-28T06:16:55;-3.90;99.90
75091;DHT22;63674;48.048;8.306;2023-02-28T06:19:25;-4.00;99.90
75091;DHT22;63674;48.048;8.306;2023-02-28T06:21:54;-4.00;99.90
75091;DHT22;63674;48.048;8.306;2023-02-28T06:24:26;-3.90;99.90
75091;DHT22;63674;48.048;8.306;2023-02-28T06:26:56;-3.90;99.90
75091;DHT22;63674;48.048;8.306;2023-02-28T06:29:25;-3.90;99.90
75091;DHT22;63674;48.048;8.306;2023-02-28T06:34:23;-3.80;99.90
75091;DHT22;63674;48.048;8.306;2023-02-28T06:36:52;-3.80;99.90
75091;DHT22;63674;48.048;8.306;2023-02-28T06:39:20;-3.80;99.90
75091;DHT22;63674;48.048;8.306;2023-02-28T06:41:50;-3.90;99.90
75091;DHT22;63674;48.048;8.306;2023-02-28T06:44:23;-4.00;99.90
75091;DHT22;63674;48.048;8.306;2023-02-28T06:46:52;-4.00;99.90
75091;DHT22;63674;48.048;8.306;2023-02-28T06:51:49;-3.80;99.90
75091;DHT22;63674;48.048;8.306;2023-02-28T06:54:17;-3.80;99.90
75091;DHT22;63674;48.048;8.306;2023-02-28T06:56:47;-3.80;99.90
75091;DHT22;63674;48.048;8.306;2023-02-28T06:59:17;-3.70;99.90
75091;DHT22;63674;48.048;8.306;2023-02-28T07:01:46;-3.70;99.90
75091;DHT22;63674;48.048;8.306;2023-02-28T07:04:14;-3.70;99.90
75091;DHT22;63674;48.048;8.306;2023-02-28T07:06:43;-3.70;99.90
75091;DHT22;63674;48.048;8.306;2023-02-28T07:09:11;-3.60;99.90
75091;DHT22;63674;48.048;8.306;2023-02-28T07:11:41;-3.50;99.90
75091;DHT22;63674;48.048;8.306;2023-02-28T07:14:10;-3.50;99.90
75091;DHT22;63674;48.048;8.306;2023-02-28T07:16:40;-3.40;99.90
75091;DHT22;63674;48.048;8.306;2023-02-28T07:19:09;-3.50;99.90
75091;DHT22;63674;48.048;8.306;2023-02-28T07:21:37;-3.50;99.90
75091;DHT22;63674;48.048;8.306;2023-02-28T07:24:06;-3.40;99.90
75091;DHT22;63674;48.048;8.306;2023-02-28T07:26:35;-3.40;99.90
75091;DHT22;63674;48.048;8.306;2023-02-28T07:29:04;-3.40;99.90
75091;DHT22;63674;48.048;8.306;2023-02-28T07:31:32;-3.40;99.90
75091;DHT22;63674;48.048;8.306;2023-02-28T07:34:02;-3.50;99.90
75091;DHT22;63674;48.048;8.306;2023-02-28T07:36:31;-3.30;99.90
75091;DHT22;63674;48.048;8.306;2023-02-28T07:38:59;-3.30;99.90
75091;DHT22;63674;48.048;8.306;2023-02-28T07:41:28;-3.20;99.90
75091;DHT22;63674;48.048;8.306;2023-02-28T07:43:57;-3.30;99.90
75091;DHT22;63674;48.048;8.306;2023-02-28T07:46:26;-3.20;99.90
75091;DHT22;63674;48.048;8.306;2023-02-28T07:48:58;-3.20;99.90
75091;DHT22;63674;48.048;8.306;2023-02-28T07:51:30;-3.20;99.90
75091;DHT22;63674;48.048;8.306;2023-02-28T07:53:59;-3.20;99.90
75091;DHT22;63674;48.048;8.306;2023-02-28T07:56:28;-3.10;99.90
75091;DHT22;63674;48.048;8.306;2023-02-28T07:58:57;-3.10;99.90
75091;DHT22;63674;48.048;8.306;2023-02-28T08:01:25;-3.20;99.90
75091;DHT22;63674;48.048;8.306;2023-02-28T08:03:55;-3.20;99.90
75091;DHT22;63674;48.048;8.306;2023-02-28T08:06:24;-3.20;99.90
75091;DHT22;63674;48.048;8.306;2023-02-28T08:08:54;-3.10;99.90
75091;DHT22;63674;48.048;8.306;2023-02-28T08:11:23;-3.10;99.90
75091;DHT22;63674;48.048;8.306;2023-02-28T08:13:52;-3.10;99.90
75091;DHT22;63674;48.048;8.306;2023-02-28T08:16:20;-3.20;99.90
75091;DHT22;63674;48.048;8.306;2023-02-28T08:18:50;-3.20;99.90
75091;DHT22;63674;48.048;8.306;2023-02-28T08:21:20;-3.30;99.90
75091;DHT22;63674;48.048;8.306;2023-02-28T08:23:49;-3.50;99.90
75091;DHT22;63674;48.048;8.306;2023-02-28T08:26:20;-3.50;99.90
75091;DHT22;63674;48.048;8.306;2023-02-28T08:28:49;-3.40;99.90
75091;DHT22;63674;48.048;8.306;2023-02-28T08:31:18;-3.20;99.90
75091;DHT22;63674;48.048;8.306;2023-02-28T08:33:48;-3.10;99.90
75091;DHT22;63674;48.048;8.306;2023-02-28T08:36:18;-3.00;99.90
75091;DHT22;63674;48.048;8.306;2023-02-28T08:38:48;-3.00;99.90
75091;DHT22;63674;48.048;8.306;2023-02-28T08:41:17;-3.00;99.90
75091;DHT22;63674;48.048;8.306;2023-02-28T08:43:47;-3.00;99.90
75091;DHT22;63674;48.048;8.306;2023-02-28T08:46:15;-3.00;99.90
75091;DHT22;63674;48.048;8.306;2023-02-28T08:48:44;-2.90;99.90
75091;DHT22;63674;48.048;8.306;2023-02-28T08:51:15;-2.80;99.90
75091;DHT22;63674;48.048;8.306;2023-02-28T08:53:45;-2.80;99.90
75091;DHT22;63674;48.048;8.306;2023-02-28T08:56:16;-2.70;99.90
75091;DHT22;63674;48.048;8.306;2023-02-28T08:58:47;-2.80;99.90
75091;DHT22;63674;48.048;8.306;2023-02-28T09:01:18;-2.80;99.90
75091;DHT22;63674;48.048;8.306;2023-02-28T09:03:49;-2.70;99.90
75091;DHT22;63674;48.048;8.306;2023-02-28T09:06:19;-2.60;99.90
75091;DHT22;63674;48.048;8.306;2023-02-28T09:08:49;-2.50;99.90
75091;DHT22;63674;48.048;8.306;2023-02-28T09:11:20;-2.50;99.90
75091;DHT22;63674;48.048;8.306;2023-02-28T09:13:50;-2.40;99.90
75091;DHT22;63674;48.048;8.306;2023-02-28T09:16:19;-2.40;99.90
75091;DHT22;63674;48.048;8.306;2023-02-28T09:18:48;-2.30;99.90
75091;DHT22;63674;48.048;8.306;2023-02-28T09:21:17;-2.30;99.90
75091;DHT22;63674;48.048;8.306;2023-02-28T09:23:48;-2.50;99.90
75091;DHT22;63674;48.048;8.306;2023-02-28T09:26:20;-2.50;99.90
75091;DHT22;63674;48.048;8.306;2023-02-28T09:28:52;-2.80;99.90
75091;DHT22;63674;48.048;8.306;2023-02-28T09:31:22;-2.70;99.90
75091;DHT22;63674;48.048;8.306;2023-02-28T09:33:54;-2.60;99.90
75091;DHT22;63674;48.048;8.306;2023-02-28T09:36:24;-2.50;99.90
75091;DHT22;63674;48.048;8.306;2023-02-28T09:39:09;-2.40;99.90
75091;DHT22;63674;48.048;8.306;2023-02-28T09:41:41;-2.30;99.90
75091;DHT22;63674;48.048;8.306;2023-02-28T09:44:22;-2.30;99.90
75091;DHT22;63674;48.048;8.306;2023-02-28T09:46:58;-2.20;99.90
75091;DHT22;63674;48.048;8.306;2023-02-28T09:49:35;-2.20;99.90
75091;DHT22;63674;48.048;8.306;2023-02-28T09:52:10;-2.20;99.90
75091;DHT22;63674;48.048;8.306;2023-02-28T09:54:40;-2.20;99.90
75091;DHT22;63674;48.048;8.306;2023-02-28T09:57:33;-2.20;99.90
75091;DHT22;63674;48.048;8.306;2023-02-28T10:00:14;-2.30;99.90
75091;DHT22;63674;48.048;8.306;2023-02-28T10:03:20;-2.50;99.90
75091;DHT22;63674;48.048;8.306;2023-02-28T10:05:59;-2.30;99.90
75091;DHT22;63674;48.048;8.306;2023-02-28T10:08:35;-2.20;99.90
75091;DHT22;63674;48.048;8.306;2023-02-28T10:11:11;-2.20;99.90
75091;DHT22;63674;48.048;8.306;2023-02-28T10:13:52;-2.20;99.90
75091;DHT22;63674;48.048;8.306;2023-02-28T10:16:30;-2.10;99.90
75091;DHT22;63674;48.048;8.306;2023-02-28T10:19:04;-2.10;99.90
75091;DHT22;63674;48.048;8.306;2023-02-28T10:21:39;-2.10;99.90
75091;DHT22;63674;48.048;8.306;2023-02-28T10:24:19;-2.10;99.90
75091;DHT22;63674;48.048;8.306;2023-02-28T10:26:51;-2.00;99.90
75091;DHT22;63674;48.048;8.306;2023-02-28T10:29:20;-1.90;99.90
75091;DHT22;63674;48.048;8.306;2023-02-28T10:31:50;-1.90;99.90
75091;DHT22;63674;48.048;8.306;2023-02-28T10:34:19;-1.90;99.90
75091;DHT22;63674;48.048;8.306;2023-02-28T10:36:49;-2.30;99.90
75091;DHT22;63674;48.048;8.306;2023-02-28T10:39:38;-2.60;99.90
75091;DHT22;63674;48.048;8.306;2023-02-28T10:42:24;-2.40;99.90
75091;DHT22;63674;48.048;8.306;2023-02-28T10:45:10;-2.10;99.90
75091;DHT22;63674;48.048;8.306;2023-02-28T10:47:51;-1.90;99.90
75091;DHT22;63674;48.048;8.306;2023-02-28T10:50:36;-1.70;99.90
75091;DHT22;63674;48.048;8.306;2023-02-28T10:53:27;-1.70;99.90
75091;DHT22;63674;48.048;8.306;2023-02-28T10:56:09;-1.60;99.90
75091;DHT22;63674;48.048;8.306;2023-02-28T10:58:53;-1.50;99.90
75091;DHT22;63674;48.048;8.306;2023-02-28T11:01:24;-1.50;99.90
75091;DHT22;63674;48.048;8.306;2023-02-28T11:04:04;-1.50;99.90
75091;DHT22;63674;48.048;8.306;2023-02-28T11:06:45;-1.50;99.90
75091;DHT22;63674;48.048;8.306;2023-02-28T11:09:29;-1.50;99.90
75091;DHT22;63674;48.048;8.306;2023-02-28T11:12:01;-1.60;99.90
75091;DHT22;63674;48.048;8.306;2023-02-28T11:14:43;-1.60;99.90
75091;DHT22;63674;48.048;8.306;2023-02-28T11:17:21;-1.60;99.90
75091;DHT22;63674;48.048;8.306;2023-02-28T11:19:56;-1.50;99.90
75091;DHT22;63674;48.048;8.306;2023-02-28T11:22:28;-1.40;99.90
75091;DHT22;63674;48.048;8.306;2023-02-28T11:25:01;-1.40;99.90
75091;DHT22;63674;48.048;8.306;2023-02-28T11:27:44;-1.40;99.90
75091;DHT22;63674;48.048;8.306;2023-02-28T11:30:30;-1.30;99.90
75091;DHT22;63674;48.048;8.306;2023-02-28T11:33:16;-1.50;99.90
75091;DHT22;63674;48.048;8.306;2023-02-28T11:35:51;-1.30;99.90
75091;DHT22;63674;48.048;8.306;2023-02-28T11:38:21;-1.30;99.90
75091;DHT22;63674;48.048;8.306;2023-02-28T11:41:00;-1.20;99.90
75091;DHT22;63674;48.048;8.306;2023-02-28T11:43:47;-1.20;99.90
75091;DHT22;63674;48.048;8.306;2023-02-28T11:46:33;-1.00;99.90
75091;DHT22;63674;48.048;8.306;2023-02-28T11:49:16;-1.30;99.90
75091;DHT22;63674;48.048;8.306;2023-02-28T11:51:59;-1.30;99.90
75091;DHT22;63674;48.048;8.306;2023-02-28T11:54:43;-1.20;99.90
75091;DHT22;63674;48.048;8.306;2023-02-28T11:57:33;-0.90;99.90
75091;DHT22;63674;48.048;8.306;2023-02-28T12:00:17;-0.90;99.90
75091;DHT22;63674;48.048;8.306;2023-02-28T12:03:06;-0.80;99.90
75091;DHT22;63674;48.048;8.306;2023-02-28T12:05:46;-0.80;99.90
75091;DHT22;63674;48.048;8.306;2023-02-28T12:08:29;-0.80;99.90
75091;DHT22;63674;48.048;8.306;2023-02-28T12:11:15;-0.80;99.90
75091;DHT22;63674;48.048;8.306;2023-02-28T12:13:58;-0.70;99.90
75091;DHT22;63674;48.048;8.306;2023-02-28T12:16:45;-0.70;99.90
75091;DHT22;63674;48.048;8.306;2023-02-28T12:19:26;-0.70;99.90
75091;DHT22;63674;48.048;8.306;2023-02-28T12:22:26;-0.80;99.90
75091;DHT22;63674;48.048;8.306;2023-02-28T12:25:24;-0.50;99.90
75091;DHT22;63674;48.048;8.306;2023-02-28T12:28:04;-0.50;99.90
75091;DHT22;63674;48.048;8.306;2023-02-28T12:30:39;-0.20;99.90
75091;DHT22;63674;48.048;8.306;2023-02-28T12:33:13;-0.20;99.90
75091;DHT22;63674;48.048;8.306;2023-02-28T12:35:47;-0.20;99.90
75091;DHT22;63674;48.048;8.306;2023-02-28T12:38:20;-0.30;99.90
75091;DHT22;63674;48.048;8.306;2023-02-28T12:40:55;-0.30;99.90
75091;DHT22;63674;48.048;8.306;2023-02-28T12:43:28;-0.40;99.90
75091;DHT22;63674;48.048;8.306;2023-02-28T12:46:04;-0.40;99.90
75091;DHT22;63674;48.048;8.306;2023-02-28T12:48:40;-0.60;99.90
75091;DHT22;63674;48.048;8.306;2023-02-28T12:51:12;-0.40;99.90
75091;DHT22;63674;48.048;8.306;2023-02-28T12:53:51;-0.30;99.90
75091;DHT22;63674;48.048;8.306;2023-02-28T12:56:33;-0.20;99.90
75091;DHT22;63674;48.048;8.306;2023-02-28T12:59:14;-0.40;99.90
75091;DHT22;63674;48.048;8.306;2023-02-28T13:05:29;-0.20;99.90
75091;DHT22;63674;48.048;8.306;2023-02-28T13:11:41;-0.50;99.90
75091;DHT22;63674;48.048;8.306;2023-02-28T13:14:23;-0.60;99.90
75091;DHT22;63674;48.048;8.306;2023-02-28T13:17:01;-0.60;99.90
75091;DHT22;63674;48.048;8.306;2023-02-28T13:19:33;-0.70;99.90
75091;DHT22;63674;48.048;8.306;2023-02-28T13:22:04;-0.60;99.90
75091;DHT22;63674;48.048;8.306;2023-02-28T13:24:39;-0.80;99.90
75091;DHT22;63674;48.048;8.306;2023-02-28T13:27:32;-0.60;99.90
75091;DHT22;63674;48.048;8.306;2023-02-28T13:33:30;0.00;99.90
75091;DHT22;63674;48.048;8.306;2023-02-28T13:36:09;0.00;99.90
75091;DHT22;63674;48.048;8.306;2023-02-28T13:38:56;0.10;99.90
75091;DHT22;63674;48.048;8.306;2023-02-28T13:41:44;-0.10;99.90
75091;DHT22;63674;48.048;8.306;2023-02-28T13:44:20;-0.10;99.90
75091;DHT22;63674;48.048;8.306;2023-02-28T13:47:27;-0.10;99.90
75091;DHT22;63674;48.048;8.306;2023-02-28T13:50:15;0.00;99.90
75091;DHT22;63674;48.048;8.306;2023-02-28T13:52:57;0.00;99.90
75091;DHT22;63674;48.048;8.306;2023-02-28T13:55:49;0.00;99.90
75091;DHT22;63674;48.048;8.306;2023-02-28T13:58:36;-0.30;99.90
75091;DHT22;63674;48.048;8.306;2023-02-28T14:01:22;-0.30;99.90
75091;DHT22;63674;48.048;8.306;2023-02-28T14:07:16;-0.10;99.90
75091;DHT22;63674;48.048;8.306;2023-02-28T14:09:55;-0.10;99.90
75091;DHT22;63674;48.048;8.306;2023-02-28T14:12:54;0.00;99.90
75091;DHT22;63674;48.048;8.306;2023-02-28T14:15:39;0.00;99.90
75091;DHT22;63674;48.048;8.306;2023-02-28T14:18:26;0.00;99.90
75091;DHT22;63674;48.048;8.306;2023-02-28T14:21:09;0.10;99.90
75091;DHT22;63674;48.048;8.306;2023-02-28T14:24:09;0.20;99.90
75091;DHT22;63674;48.048;8.306;2023-02-28T14:27:05;0.20;99.90
75091;DHT22;63674;48.048;8.306;2023-02-28T14:30:03;0.20;99.90
75091;DHT22;63674;48.048;8.306;2023-02-28T14:32:46;0.30;99.90
75091;DHT22;63674;48.048;8.306;2023-02-28T14:35:39;0.20;99.90
75091;DHT22;63674;48.048;8.306;2023-02-28T14:38:18;0.30;99.90
75091;DHT22;63674;48.048;8.306;2023-02-28T14:40:51;0.30;99.90
75091;DHT22;63674;48.048;8.306;2023-02-28T14:43:23;0.30;99.90
75091;DHT22;63674;48.048;8.306;2023-02-28T14:45:55;0.20;99.90
75091;DHT22;63674;48.048;8.306;2023-02-28T14:48:26;0.20;99.90
75091;DHT22;63674;48.048;8.306;2023-02-28T14:50:59;0.40;99.90
75091;DHT22;63674;48.048;8.306;2023-02-28T14:53:30;0.30;99.90
75091;DHT22;63674;48.048;8.306;2023-02-28T14:56:05;0.40;99.90
75091;DHT22;63674;48.048;8.306;2023-02-28T14:58:35;0.50;99.90
75091;DHT22;63674;48.048;8.306;2023-02-28T15:01:04;0.60;99.90
75091;DHT22;63674;48.048;8.306;2023-02-28T15:03:35;0.60;99.90
75091;DHT22;63674;48.048;8.306;2023-02-28T15:06:13;0.70;99.90
75091;DHT22;63674;48.048;8.306;2023-02-28T15:08:44;0.20;99.90
75091;DHT22;63674;48.048;8.306;2023-02-28T15:11:15;0.20;99.90
75091;DHT22;63674;48.048;8.306;2023-02-28T15:13:47;0.10;99.90
75091;DHT22;63674;48.048;8.306;2023-02-28T15:16:20;0.00;99.90
75091;DHT22;63674;48.048;8.306;2023-02-28T15:18:52;0.10;99.90
75091;DHT22;63674;48.048;8.306;2023-02-28T15:21:26;0.00;99.90
75091;DHT22;63674;48.048;8.306;2023-02-28T15:23:59;0.00;99.90
75091;DHT22;63674;48.048;8.306;2023-02-28T15:26:31;0.00;99.90
75091;DHT22;63674;48.048;8.306;2023-02-28T15:29:04;0.00;99.90
75091;DHT22;63674;48.048;8.306;2023-02-28T15:31:35;0.10;99.90
75091;DHT22;63674;48.048;8.306;2023-02-28T15:34:29;0.10;99.90
75091;DHT22;63674;48.048;8.306;2023-02-28T15:37:29;0.20;99.90
75091;DHT22;63674;48.048;8.306;2023-02-28T15:40:10;0.30;99.90
75091;DHT22;63674;48.048;8.306;2023-02-28T15:42:42;0.30;99.90
75091;DHT22;63674;48.048;8.306;2023-02-28T15:45:29;0.10;99.90
75091;DHT22;63674;48.048;8.306;2023-02-28T15:48:02;0.10;99.90
75091;DHT22;63674;48.048;8.306;2023-02-28T15:50:40;0.00;99.90
75091;DHT22;63674;48.048;8.306;2023-02-28T15:53:16;0.00;99.90
75091;DHT22;63674;48.048;8.306;2023-02-28T15:55:53;0.00;99.90
75091;DHT22;63674;48.048;8.306;2023-02-28T15:58:24;0.00;99.90
75091;DHT22;63674;48.048;8.306;2023-02-28T16:01:05;0.00;99.90
75091;DHT22;63674;48.048;8.306;2023-02-28T16:03:40;0.00;99.90
75091;DHT22;63674;48.048;8.306;2023-02-28T16:06:33;-0.10;99.90
75091;DHT22;63674;48.048;8.306;2023-02-28T16:09:05;-0.10;99.90
75091;DHT22;63674;48.048;8.306;2023-02-28T16:11:39;-0.10;99.90
75091;DHT22;63674;48.048;8.306;2023-02-28T16:14:16;-0.10;99.90
75091;DHT22;63674;48.048;8.306;2023-02-28T16:16:48;-0.10;99.90
75091;DHT22;63674;48.048;8.306;2023-02-28T16:19:23;-0.10;99.90
75091;DHT22;63674;48.048;8.306;2023-02-28T16:21:51;0.00;99.90
75091;DHT22;63674;48.048;8.306;2023-02-28T16:24:21;0.00;99.90
75091;DHT22;63674;48.048;8.306;2023-02-28T16:26:53;-0.10;99.90
75091;DHT22;63674;48.048;8.306;2023-02-28T16:29:25;-0.10;99.90
75091;DHT22;63674;48.048;8.306;2023-02-28T16:31:56;-0.10;99.90
75091;DHT22;63674;48.048;8.306;2023-02-28T16:34:25;-0.20;99.90
75091;DHT22;63674;48.048;8.306;2023-02-28T16:36:53;-0.30;99.90
75091;DHT22;63674;48.048;8.306;2023-02-28T16:39:23;-0.30;99.90
75091;DHT22;63674;48.048;8.306;2023-02-28T16:41:52;-0.40;99.90
75091;DHT22;63674;48.048;8.306;2023-02-28T16:44:26;-0.40;99.90
75091;DHT22;63674;48.048;8.306;2023-02-28T16:47:02;-0.50;99.90
75091;DHT22;63674;48.048;8.306;2023-02-28T16:49:31;-0.50;99.90
75091;DHT22;63674;48.048;8.306;2023-02-28T16:51:59;-0.70;99.90
75091;DHT22;63674;48.048;8.306;2023-02-28T16:54:29;-0.70;99.90
75091;DHT22;63674;48.048;8.306;2023-02-28T16:56:58;-1.10;99.90
75091;DHT22;63674;48.048;8.306;2023-02-28T16:59:27;-1.10;99.90
75091;DHT22;63674;48.048;8.306;2023-02-28T17:01:56;-1.30;99.90
75091;DHT22;63674;48.048;8.306;2023-02-28T17:04:26;-1.40;99.90